Time;durP1;ratioP1;P1;durP2;ratioP2;P2;SDS_P1;SDS_P2;PMS_P1;PMS_P2;Temp;Humidity;BMP_temperature;BMP_pressure;BME280_temperature;BME280_humidity;BME280_pressure;Samples;Min_cycle;Max_cycle;Signal;HPM_P1;HPM_P2
2023/01/15 00:01:34;;;;;;;19.50;7.80;;;;;;;1.52;69.09;101212.19;105680;1253;72240;-68
2023/01/15 00:04:02;;;;;;;17.20;6.80;;;;;;;1.46;69.16;101205.77;105475;1256;75175;-67
2023/01/15 00:06:30;;;;;;;16.00;5.70;;;;;;;1.41;69.27;101203.33;105897;1258;61551;-68
2023/01/15 00:08:58;;;;;;;22.40;8.70;;;;;;;1.36;69.23;101197.77;105582;1258;61036;-67
2023/01/15 00:11:25;;;;;;;20.60;7.00;;;;;;;1.33;69.36;101196.98;105653;1253;74082;-68
2023/01/15 00:13:54;;;;;;;17.20;6.90;;;;;;;1.29;69.41;101190.86;105386;1253;70989;-68
2023/01/15 00:16:22;;;;;;;13.10;6.00;;;;;;;1.26;69.53;101184.57;105844;1253;73682;-67
2023/01/15 00:18:53;;;;;;;19.00;7.00;;;;;;;1.30;69.35;101187.22;105943;1255;63461;-68
2023/01/15 00:21:21;;;;;;;14.20;6.40;;;;;;;1.36;69.29;101186.88;105496;1258;59625;-68
2023/01/15 00:29:20;;;;;;;;;;;;;;;1.60;69.42;101184.60;105366;1259;64718;-67
2023/01/15 00:32:01;;;;;;;16.10;8.10;;;;;;;1.65;69.53;101187.76;105251;1258;60676;-68
2023/01/15 08:22:33;;;;;;;10.40;3.30;;;;;;;2.02;66.49;101093.67;107132;1263;63309;-67
2023/01/15 08:25:00;;;;;;;10.40;4.30;;;;;;;2.09;66.62;101095.52;110268;1244;62396;-69
2023/01/15 08:27:28;;;;;;;8.10;3.60;;;;;;;2.15;66.41;101097.23;107641;1250;72611;-68
2023/01/15 08:29:55;;;;;;;9.30;3.70;;;;;;;2.11;66.33;101098.77;107609;1244;60318;-68
2023/01/15 08:32:23;;;;;;;10.60;4.80;;;;;;;2.06;66.33;101102.74;107705;1245;61159;-68
2023/01/15 08:34:50;;;;;;;10.10;5.40;;;;;;;2.02;66.46;101102.69;107726;1246;73583;-69
2023/01/15 08:37:18;;;;;;;8.50;3.30;;;;;;;1.89;66.65;101101.54;107692;1249;70534;-69
2023/01/15 08:39:44;;;;;;;9.70;4.70;;;;;;;1.80;66.87;101101.82;107735;1249;72241;-69
2023/01/15 08:42:11;;;;;;;8.60;3.90;;;;;;;1.76;67.09;101100.92;107742;1245;60596;-70
2023/01/15 08:44:38;;;;;;;9.10;3.70;;;;;;;1.72;67.18;101102.10;107737;1244;61181;-69
2023/01/15 08:47:05;;;;;;;10.40;4.60;;;;;;;1.69;67.27;101097.34;107665;1244;72087;-68
2023/01/15 08:49:32;;;;;;;8.30;3.70;;;;;;;1.64;67.37;101096.46;107727;1245;70094;-68
2023/01/15 08:51:59;;;;;;;7.90;3.50;;;;;;;1.59;67.36;101095.40;107653;1244;73719;-68
2023/01/15 08:54:27;;;;;;;8.00;3.00;;;;;;;1.61;67.24;101091.35;107610;1250;62175;-69
2023/01/15 08:56:53;;;;;;;10.50;3.70;;;;;;;1.69;67.27;101087.66;107636;1249;60093;-68
2023/01/15 08:59:21;;;;;;;8.60;3.30;;;;;;;1.75;67.10;101078.11;107608;1249;73633;-69
2023/01/15 09:01:47;;;;;;;7.60;3.20;;;;;;;1.78;66.97;101078.02;107670;1245;70468;-69
2023/01/15 09:04:15;;;;;;;10.10;4.00;;;;;;;1.79;67.11;101076.61;107609;1249;72527;-69
2023/01/15 09:06:43;;;;;;;10.60;4.60;;;;;;;1.78;67.10;101074.91;107676;1249;60490;-70
2023/01/15 09:09:10;;;;;;;9.70;4.80;;;;;;;1.78;67.14;101070.25;107605;1247;61191;-69
2023/01/15 09:11:39;;;;;;;9.60;4.20;;;;;;;1.76;67.14;101063.22;107598;1247;72784;-69
2023/01/15 09:14:07;;;;;;;11.60;4.50;;;;;;;1.73;67.11;101061.94;107694;1244;71205;-69
2023/01/15 09:16:35;;;;;;;10.40;5.00;;;;;;;1.67;67.14;101056.08;107549;1249;73537;-69
2023/01/15 09:19:02;;;;;;;10.20;5.00;;;;;;;1.62;67.22;101048.98;107721;1249;59650;-69
2023/01/15 09:21:29;;;;;;;12.10;6.00;;;;;;;1.59;67.38;101049.26;107648;1245;60200;-69
2023/01/15 09:23:56;;;;;;;11.80;4.90;;;;;;;1.57;67.53;101045.15;108194;1238;73919;-68
2023/01/15 09:26:43;;;;;;;9.60;3.90;;;;;;;1.55;67.56;101036.89;108158;1241;71113;-69
2023/01/15 09:29:10;;;;;;;7.00;2.80;;;;;;;1.61;67.38;101030.83;108226;1241;64687;-69
2023/01/15 09:31:39;;;;;;;11.00;3.60;;;;;;;1.72;67.34;101025.98;108207;1238;61795;-67
2023/01/15 09:34:06;;;;;;;10.50;3.20;;;;;;;1.81;67.34;101023.45;108228;1240;61064;-67
2023/01/15 09:36:33;;;;;;;9.00;2.90;;;;;;;1.92;67.15;101023.77;108201;1241;73687;-68
2023/01/15 09:39:01;;;;;;;8.40;3.70;;;;;;;1.98;67.00;101022.70;108276;1242;71030;-67
2023/01/15 09:42:09;;;;;;;10.80;3.80;;;;;;;2.01;67.12;101024.33;108272;1238;72278;-68
2023/01/15 09:45:02;;;;;;;8.80;3.90;;;;;;;2.04;67.09;101020.05;108058;1238;59780;-68
2023/01/15 09:47:35;;;;;;;9.20;3.80;;;;;;;2.03;66.98;101015.78;108310;1243;60315;-69
2023/01/15 09:50:11;;;;;;;9.80;3.70;;;;;;;2.03;66.87;101013.02;108298;1240;74405;-67
2023/01/15 09:53:05;;;;;;;8.90;4.20;;;;;;;2.00;66.75;101007.05;108195;1242;71343;-66
2023/01/15 09:55:33;;;;;;;8.50;3.10;;;;;;;1.96;66.51;101008.77;108170;1244;65222;-68
2023/01/15 09:58:03;;;;;;;9.70;3.70;;;;;;;1.90;66.60;101010.86;108277;1241;59737;-68
2023/01/15 10:00:36;;;;;;;9.90;3.80;;;;;;;1.84;66.64;101006.71;108181;1240;61292;-67
2023/01/15 10:06:42;;;;;;;8.40;3.60;;;;;;;1.73;66.86;100994.11;101932;1295;602449;-67
2023/01/15 10:09:11;;;;;;;9.70;3.20;;;;;;;1.97;66.40;100988.48;104436;1270;59273;-67
2023/01/15 10:14:38;;;;;;;7.90;3.40;;;;;;;2.22;66.20;100976.16;105380;1266;66200;-68
2023/01/15 10:17:33;;;;;;;10.40;3.30;;;;;;;2.29;65.95;100973.00;104942;1267;73249;-68
2023/01/15 10:20:00;;;;;;;9.20;3.30;;;;;;;2.17;66.13;100961.81;104516;1270;183099;-68
2023/01/15 10:22:52;;;;;;;10.30;4.80;;;;;;;2.14;66.29;100955.36;104719;1267;61583;-68
2023/01/15 10:25:23;;;;;;;9.60;3.60;;;;;;;2.14;66.10;100947.20;104717;1269;59336;-68
2023/01/15 10:27:50;;;;;;;13.00;5.60;;;;;;;2.14;66.00;100944.10;104769;1264;73175;-68
2023/01/15 10:30:40;;;;;;;11.40;4.40;;;;;;;2.10;65.96;100937.83;104657;1264;72439;-69
2023/01/15 10:33:37;;;;;;;12.90;4.50;;;;;;;2.16;65.79;100931.89;105032;1264;66181;-69
2023/01/15 10:36:14;;;;;;;12.10;5.80;;;;;;;2.17;65.81;100932.05;104581;1263;59716;-68
2023/01/15 10:38:52;;;;;;;12.80;5.20;;;;;;;2.14;65.69;100931.45;104689;1270;61562;-67
2023/01/15 10:41:44;;;;;;;11.30;4.70;;;;;;;2.10;65.81;100930.39;104901;1263;75060;-68
2023/01/15 10:44:18;;;;;;;11.90;4.00;;;;;;;2.00;65.74;100929.00;104717;1269;62999;-69
2023/01/15 10:46:49;;;;;;;7.20;2.70;;;;;;;1.96;65.82;100934.17;104666;1264;73262;-69
2023/01/15 10:49:17;;;;;;;7.70;3.30;;;;;;;2.00;65.75;100936.29;104702;1266;63593;-68
2023/01/15 10:51:53;;;;;;;10.50;3.60;;;;;;;2.03;65.60;100936.34;104795;1264;62133;-69
2023/01/15 10:54:36;;;;;;;10.40;4.40;;;;;;;2.10;65.57;100934.36;105078;1264;66557;-69
2023/01/15 10:57:10;;;;;;;11.80;4.80;;;;;;;2.11;65.47;100926.05;104692;1268;62753;-69
2023/01/15 10:59:51;;;;;;;9.30;4.20;;;;;;;2.08;65.60;100926.14;104805;1264;73671;-68
2023/01/15 11:02:27;;;;;;;11.50;5.50;;;;;;;2.06;65.73;100928.29;104623;1269;59647;-70
2023/01/15 11:04:55;;;;;;;12.00;5.20;;;;;;;1.94;66.02;100922.81;104651;1270;59500;-68
2023/01/15 11:07:36;;;;;;;12.10;4.60;;;;;;;1.90;66.10;100918.80;104630;1264;75140;-69
2023/01/15 11:10:11;;;;;;;17.40;5.50;;;;;;;1.96;65.95;100919.80;104494;1269;62858;-68
2023/01/15 11:21:15;;;;;;;9.90;3.60;;;;;;;2.03;65.90;100892.91;104676;1264;65535;-68
2023/01/15 11:23:41;;;;;;;11.60;3.30;;;;;;;2.14;65.92;100891.47;104678;1267;62775;-69
2023/01/15 11:26:09;;;;;;;8.40;3.20;;;;;;;2.27;66.03;100888.07;104561;1270;73789;-68
2023/01/15 11:28:45;;;;;;;8.50;3.90;;;;;;;2.33;65.82;100886.59;104709;1270;60524;-68
2023/01/15 11:31:12;;;;;;;11.60;5.20;;;;;;;2.37;65.73;100879.86;104801;1263;62178;-67
2023/01/15 11:33:39;;;;;;;12.00;5.70;;;;;;;2.39;65.65;100869.77;104758;1269;74719;-68
2023/01/15 11:36:22;;;;;;;11.50;5.00;;;;;;;2.40;65.65;100865.39;104648;1269;71401;-68
2023/01/15 11:38:50;;;;;;;11.80;4.10;;;;;;;2.40;65.46;100864.02;104742;1264;66221;-69
2023/01/15 11:52:46;;;;;;;14.30;5.30;;;;;;;2.14;65.59;100853.04;104707;1266;66218;-69
2023/01/15 11:55:16;;;;;;;12.70;4.80;;;;;;;2.11;65.74;100855.76;104769;1270;60591;-68
2023/01/15 11:57:44;;;;;;;9.50;4.50;;;;;;;2.13;65.74;100856.02;104900;1266;61394;-68
2023/01/15 12:00:21;;;;;;;10.90;3.80;;;;;;;2.18;65.75;100862.25;104796;1263;75393;-68
2023/01/15 12:02:49;;;;;;;11.80;5.10;;;;;;;2.19;65.73;100859.25;104622;1269;62775;-68
2023/01/15 12:05:17;;;;;;;15.30;5.60;;;;;;;2.17;65.76;100858.81;104767;1267;73883;-68
2023/01/15 12:07:44;;;;;;;13.10;4.50;;;;;;;2.11;66.02;100860.95;105127;1263;60354;-68
2023/01/15 12:13:35;;;;;;;13.40;6.10;;;;;;;2.06;66.59;100862.02;104667;1270;66527;-68
2023/01/15 12:16:40;;;;;;;10.30;6.10;;;;;;;2.02;66.67;100868.55;104655;1269;62976;-68
2023/01/15 12:19:16;;;;;;;11.40;5.30;;;;;;;1.93;66.79;100872.52;104881;1269;65163;-69
2023/01/15 12:21:53;;;;;;;11.70;5.60;;;;;;;1.84;67.06;100871.80;104711;1266;59813;-70
2023/01/15 12:24:40;;;;;;;14.40;5.80;;;;;;;1.78;67.34;100872.02;104723;1263;59712;-67
2023/01/15 12:27:16;;;;;;;14.50;4.40;;;;;;;1.78;67.44;100868.90;104940;1263;66465;-67
2023/01/15 12:29:45;;;;;;;;;;;;;;;1.81;67.53;100869.11;104807;1266;62798;-68
2023/01/15 12:32:17;;;;;;;14.70;5.10;;;;;;;1.84;67.65;100872.67;104921;1263;74744;-69
2023/01/15 12:34:56;;;;;;;14.80;6.70;;;;;;;1.83;67.84;100878.40;105008;1266;60567;-68
2023/01/15 12:37:39;;;;;;;10.70;4.10;;;;;;;1.83;68.09;100881.86;104731;1266;59569;-69
2023/01/15 12:40:14;;;;;;;15.70;7.70;;;;;;;1.82;67.97;100887.42;104742;1266;66259;-68
2023/01/15 12:45:30;;;;;;;15.30;6.20;;;;;;;1.72;68.23;100888.66;104858;1261;65360;-69
2023/01/15 12:48:15;;;;;;;14.70;6.60;;;;;;;1.68;68.48;100887.23;105108;1262;61401;-67
2023/01/15 12:50:46;;;;;;;11.00;4.60;;;;;;;1.64;68.59;100878.55;104810;1263;59583;-68
2023/01/15 12:53:13;;;;;;;11.10;4.20;;;;;;;1.62;68.66;100877.73;104846;1266;75183;-69
2023/01/15 12:55:44;;;;;;;14.90;6.90;;;;;;;1.66;68.71;100875.02;104767;1264;71381;-69
2023/01/15 12:58:39;;;;;;;12.90;5.40;;;;;;;1.72;68.64;100868.59;104710;1265;73505;-68
2023/01/15 13:01:10;;;;;;;12.90;5.60;;;;;;;1.77;68.72;100862.17;104748;1260;59612;-69
2023/01/15 15:57:56;;;;;;;12.10;4.80;;;;;;;1.13;69.29;100764.52;101994;1292;601314;-69
2023/01/15 16:00:31;;;;;;;13.80;3.90;;;;;;;1.20;68.93;100762.16;104462;1271;59327;-67
2023/01/15 16:03:01;;;;;;;16.70;5.30;;;;;;;1.24;68.85;100764.45;104344;1272;59176;-68
2023/01/15 16:05:31;;;;;;;9.50;3.80;;;;;;;1.29;68.89;100768.94;104698;1271;74232;-68
2023/01/15 16:08:16;;;;;;;9.00;3.20;;;;;;;1.34;68.96;100767.55;104638;1264;62704;-68
2023/01/15 16:10:51;;;;;;;11.20;4.40;;;;;;;1.39;69.10;100764.96;104827;1263;205207;-68
2023/01/15 16:13:30;;;;;;;12.60;4.90;;;;;;;1.42;69.32;100761.91;105030;1264;60377;-69
2023/01/15 16:15:57;;;;;;;10.40;4.50;;;;;;;1.43;69.27;100757.72;104680;1266;59287;-68
2023/01/15 16:18:27;;;;;;;10.60;4.60;;;;;;;1.42;69.16;100759.16;104889;1263;73221;-69
2023/01/15 16:20:54;;;;;;;12.30;4.70;;;;;;;1.40;68.99;100760.80;104826;1267;71027;-68
2023/01/15 16:23:23;;;;;;;12.80;4.30;;;;;;;1.35;69.08;100762.51;104980;1267;73557;-69
2023/01/15 16:26:00;;;;;;;10.90;4.00;;;;;;;1.30;69.12;100764.75;104762;1260;61946;-71
2023/01/15 16:28:37;;;;;;;12.80;4.70;;;;;;;1.24;69.12;100760.65;104834;1268;59636;-71
2023/01/15 16:31:04;;;;;;;12.10;4.70;;;;;;;1.22;68.95;100757.24;105159;1261;65436;-69
2023/01/15 16:33:31;;;;;;;11.40;4.70;;;;;;;1.25;68.83;100762.14;105129;1262;71449;-71
2023/01/15 16:35:59;;;;;;;10.40;4.00;;;;;;;1.30;68.95;100763.88;105176;1260;73903;-68
2023/01/15 16:38:26;;;;;;;12.70;5.70;;;;;;;1.34;69.04;100759.63;104928;1259;60491;-68
2023/01/15 16:40:53;;;;;;;13.40;5.20;;;;;;;1.34;69.01;100756.52;105257;1262;62654;-69
2023/01/15 16:43:23;;;;;;;12.10;4.90;;;;;;;1.31;69.09;100757.80;104954;1258;73984;-69
2023/01/15 16:46:14;;;;;;;11.60;4.30;;;;;;;1.29;69.14;100754.45;105096;1262;72094;-68
2023/01/15 16:48:45;;;;;;;13.60;5.60;;;;;;;1.25;69.09;100748.86;105057;1262;65157;-68
2023/01/15 16:51:35;;;;;;;11.60;4.40;;;;;;;1.20;69.19;100747.14;105165;1262;59670;-68
2023/01/15 16:54:03;;;;;;;14.70;6.80;;;;;;;1.15;69.19;100741.28;105139;1259;59660;-67
2023/01/15 16:56:36;;;;;;;23.10;4.90;;;;;;;1.10;69.41;100736.95;105097;1257;75530;-70
2023/01/15 16:59:04;;;;;;;10.50;3.10;;;;;;;1.12;69.32;100727.18;104990;1263;71253;-70
2023/01/15 17:01:42;;;;;;;14.20;4.20;;;;;;;1.20;69.20;100725.89;105196;1262;74553;-69
2023/01/15 17:04:23;;;;;;;7.80;3.40;;;;;;;1.25;69.17;100727.42;105061;1261;59747;-69
2023/01/15 17:07:03;;;;;;;10.20;4.20;;;;;;;1.32;69.25;100722.17;105113;1262;59394;-69
2023/01/15 17:09:32;;;;;;;18.10;6.00;;;;;;;1.36;69.36;100716.86;105252;1258;65426;-69
2023/01/15 17:12:02;;;;;;;11.30;5.50;;;;;;;1.35;69.41;100718.95;105015;1263;71333;-68
2023/01/15 17:14:29;;;;;;;15.70;4.50;;;;;;;1.32;69.25;100719.40;105035;1263;74006;-68
2023/01/15 17:17:18;;;;;;;12.20;6.30;;;;;;;1.26;69.41;100716.50;105076;1263;61567;-69
2023/01/15 17:19:45;;;;;;;12.90;5.10;;;;;;;1.22;69.53;100712.52;105079;1263;62440;-69
2023/01/15 17:22:23;;;;;;;12.50;6.00;;;;;;;1.20;69.75;100705.14;105065;1263;74053;-68
2023/01/15 17:24:51;;;;;;;15.40;7.00;;;;;;;1.19;69.75;100705.00;104902;1272;62865;-68
2023/01/15 17:27:18;;;;;;;13.60;7.80;;;;;;;1.18;69.79;100706.92;105069;1270;73631;-69
2023/01/15 17:29:45;;;;;;;10.50;6.30;;;;;;;1.18;69.87;100706.08;105056;1262;61645;-70
2023/01/15 17:32:14;;;;;;;11.60;4.90;;;;;;;1.20;69.80;100705.48;104994;1262;62381;-67
2023/01/15 17:34:41;;;;;;;15.90;6.30;;;;;;;1.27;69.42;100707.67;105215;1261;74737;-68
2023/01/15 17:37:08;;;;;;;10.30;4.00;;;;;;;1.28;69.45;100705.20;105068;1263;71617;-68
2023/01/15 17:39:35;;;;;;;9.40;3.40;;;;;;;1.19;69.92;100704.33;104943;1263;75050;-70
2023/01/15 17:42:12;;;;;;;13.50;5.30;;;;;;;1.23;69.98;100704.15;105096;1264;60607;-69
2023/01/15 17:44:39;;;;;;;14.20;4.90;;;;;;;1.26;70.04;100699.89;104781;1265;59618;-70
2023/01/15 17:47:06;;;;;;;19.90;6.20;;;;;;;1.25;70.10;100695.79;105142;1257;75247;-69
2023/01/15 17:49:33;;;;;;;16.00;6.50;;;;;;;1.25;70.22;100695.79;105074;1258;72696;-68
2023/01/15 17:53:57;;;;;;;10.60;4.90;;;;;;;1.16;70.35;100687.48;102148;1295;602987;-67
2023/01/15 18:06:01;;;;;;;12.10;4.30;;;;;;;1.19;69.48;100682.89;104434;1268;64693;-67
2023/01/15 18:08:31;;;;;;;10.20;3.70;;;;;;;1.24;69.55;100675.80;104492;1269;71297;-67
2023/01/15 18:10:58;;;;;;;13.40;6.30;;;;;;;1.24;69.59;100675.63;104357;1263;178584;-68
2023/01/15 18:14:59;;;;;;;19.30;7.20;;;;;;;1.05;70.44;100669.40;102064;1296;600494;-62
2023/01/15 18:17:27;;;;;;;18.90;8.90;;;;;;;1.13;70.18;100664.97;104508;1272;59254;-63
2023/01/15 18:19:57;;;;;;;17.00;5.20;;;;;;;1.16;69.99;100656.58;104397;1272;62451;-62
2023/01/15 18:22:24;;;;;;;20.40;5.80;;;;;;;1.14;70.03;100651.63;104514;1272;74529;-62
2023/01/15 18:24:51;;;;;;;16.30;5.60;;;;;;;1.11;70.08;100649.98;104483;1267;71179;-64
2023/01/15 18:27:18;;;;;;;24.30;8.70;;;;;;;1.09;70.06;100652.48;104328;1272;187933;-62
2023/01/15 18:29:45;;;;;;;12.80;5.60;;;;;;;1.13;70.01;100645.62;104517;1263;63149;-62
2023/01/15 18:32:12;;;;;;;14.80;3.30;;;;;;;1.21;69.82;100642.55;104500;1270;61725;-63
2023/01/15 18:34:39;;;;;;;13.80;5.60;;;;;;;1.27;69.66;100640.60;104554;1266;74390;-63
2023/01/15 18:37:06;;;;;;;14.20;5.50;;;;;;;1.32;69.68;100637.14;104510;1266;71463;-62
2023/01/15 18:39:35;;;;;;;13.60;3.90;;;;;;;1.29;69.72;100637.09;104567;1267;74694;-63
2023/01/15 18:47:16;;;;;;;15.90;5.10;;;;;;;1.09;70.29;100625.38;104529;1269;66651;-63
2023/01/15 18:49:44;;;;;;;14.50;6.10;;;;;;;1.04;70.20;100623.98;104747;1269;71135;-63
2023/01/15 18:54:58;;;;;;;17.50;5.70;;;;;;;0.95;70.25;100623.80;104648;1270;60785;-63
2023/01/15 18:57:25;;;;;;;12.20;5.10;;;;;;;0.89;70.31;100619.52;104521;1270;62993;-63
2023/01/15 18:59:52;;;;;;;13.70;4.40;;;;;;;0.95;69.99;100621.05;104559;1263;75136;-63
2023/01/15 19:02:20;;;;;;;10.20;5.20;;;;;;;1.02;69.90;100623.73;104492;1264;72576;-63
2023/01/15 19:04:47;;;;;;;13.80;5.20;;;;;;;1.06;69.60;100625.81;104519;1266;75097;-63
2023/01/15 19:07:14;;;;;;;10.60;3.30;;;;;;;1.11;69.63;100621.34;104703;1267;63499;-63
2023/01/15 19:09:42;;;;;;;10.30;4.20;;;;;;;1.16;69.74;100623.05;104701;1264;61546;-62
2023/01/15 19:12:09;;;;;;;17.50;6.70;;;;;;;1.15;69.75;100618.95;104692;1264;74971;-63
2023/01/15 19:20:13;;;;;;;16.40;7.30;;;;;;;1.05;69.91;100610.30;104569;1264;59635;-63
2023/01/15 19:22:58;;;;;;;21.10;7.20;;;;;;;1.01;70.00;100612.53;104600;1269;61750;-63
2023/01/15 19:25:35;;;;;;;18.80;6.50;;;;;;;0.95;70.06;100613.63;104535;1267;65406;-63
2023/01/15 19:28:03;;;;;;;15.80;6.50;;;;;;;0.89;70.11;100611.41;104699;1266;63824;-63
2023/01/15 19:30:31;;;;;;;15.60;5.50;;;;;;;0.91;70.04;100605.29;104690;1266;73960;-62
2023/01/15 19:32:58;;;;;;;11.50;4.80;;;;;;;0.92;69.95;100603.88;104603;1269;62504;-63
2023/01/15 19:35:27;;;;;;;13.30;5.30;;;;;;;0.93;69.84;100603.98;104470;1266;62558;-63
2023/01/15 19:37:55;;;;;;;12.00;5.70;;;;;;;0.93;70.06;100599.36;104722;1264;74153;-61
2023/01/15 19:40:22;;;;;;;13.30;5.60;;;;;;;0.90;70.12;100594.63;104652;1264;72456;-62
2023/01/15 19:51:09;;;;;;;19.10;6.40;;;;;;;0.79;70.48;100596.22;104602;1269;66585;-63
2023/01/15 19:53:38;;;;;;;13.00;5.00;;;;;;;0.73;70.60;100589.18;104561;1264;72432;-61
2023/01/15 19:56:06;;;;;;;15.20;5.70;;;;;;;0.76;70.47;100585.80;104856;1271;73842;-62
2023/01/15 19:58:33;;;;;;;12.70;6.20;;;;;;;0.79;70.38;100591.55;104643;1269;62038;-63
2023/01/15 20:01:00;;;;;;;16.70;5.70;;;;;;;0.83;70.31;100592.96;104509;1265;61209;-63
2023/01/15 20:03:28;;;;;;;13.20;5.30;;;;;;;0.73;70.90;100595.40;104586;1267;74090;-62
2023/01/15 20:05:55;;;;;;;13.00;6.50;;;;;;;0.72;71.06;100588.88;104707;1270;72733;-62
2023/01/15 20:08:22;;;;;;;19.40;7.00;;;;;;;0.71;71.13;100591.50;104784;1266;74895;-63
2023/01/15 20:10:49;;;;;;;15.90;5.00;;;;;;;0.69;71.25;100599.52;104534;1266;61727;-62
